Time;durP1;ratioP1;P1;durP2;ratioP2;P2;SDS_P1;SDS_P2;PMS_P1;PMS_P2;Temp;Humidity;BMP_temperature;BMP_pressure;BME280_temperature;BME280_humidity;BME280_pressure;Samples;Min_cycle;Max_cycle;Signal;HPM_P1;HPM_P2
2023/09/14 11:25:52;;;;;;;4.35;2.33;;;17.90;54.60;;;;;;5030342;28;20088;-71
2023/09/14 11:28:22;;;;;;;9.73;2.72;;;17.80;55.20;;;;;;5014823;28;20033;-71
2023/09/14 11:30:50;;;;;;;4.45;2.50;;;17.80;55.40;;;;;;5032703;28;20041;-71
2023/09/14 11:33:17;;;;;;;5.03;2.10;;;17.80;55.40;;;;;;5051040;28;20475;-72
2023/09/14 11:35:48;;;;;;;4.85;2.30;;;17.80;55.90;;;;;;5052114;28;20112;-71
2023/09/14 11:38:16;;;;;;;3.78;2.20;;;17.80;56.00;;;;;;5039730;28;20034;-71
2023/09/14 11:40:44;;;;;;;4.85;2.10;;;17.80;55.80;;;;;;5034646;28;20084;-71
2023/09/14 11:43:24;;;;;;;5.55;2.33;;;17.70;55.20;;;;;;5052582;28;20383;-71
2023/09/14 11:45:57;;;;;;;4.53;2.08;;;17.80;53.90;;;;;;5011759;28;20393;-71
2023/09/14 11:48:29;;;;;;;6.03;2.00;;;17.70;53.40;;;;;;4995712;28;20114;-71
2023/09/14 11:50:56;;;;;;;43.42;5.65;;;17.70;53.20;;;;;;5014075;28;20030;-71
2023/09/14 11:53:24;;;;;;;39.70;6.00;;;17.70;52.60;;;;;;5016786;28;20108;-71
2023/09/14 11:55:52;;;;;;;26.15;5.68;;;17.70;52.20;;;;;;5048185;28;20491;-71
2023/09/14 11:58:22;;;;;;;21.52;4.15;;;17.80;52.60;;;;;;5010830;28;20520;-72
2023/09/14 12:00:51;;;;;;;12.13;3.35;;;17.70;52.00;;;;;;4978517;28;20040;-71
2023/09/14 12:03:18;;;;;;;7.68;2.20;;;17.70;52.20;;;;;;5012554;28;20033;-72
2023/09/14 12:05:47;;;;;;;9.88;2.30;;;17.70;51.90;;;;;;5008265;28;20137;-72
2023/09/14 12:08:15;;;;;;;5.70;2.17;;;17.70;51.60;;;;;;5030509;28;20041;-72
2023/09/14 12:10:44;;;;;;;5.22;2.45;;;17.70;52.50;;;;;;5030529;28;20033;-71
2023/09/14 12:13:15;;;;;;;9.13;2.40;;;17.70;52.70;;;;;;5031536;28;20207;-71
2023/09/14 12:15:46;;;;;;;5.93;2.15;;;17.70;52.30;;;;;;5016813;28;20286;-72
2023/09/14 12:18:16;;;;;;;5.35;2.22;;;17.70;52.60;;;;;;5037674;28;20041;-72
2023/09/14 12:20:45;;;;;;;3.38;2.38;;;17.60;52.50;;;;;;5051620;28;20055;-72
2023/09/14 12:23:12;;;;;;;8.80;3.42;;;17.60;52.90;;;;;;5033319;28;20037;-72
2023/09/14 12:25:40;;;;;;;6.18;3.28;;;17.60;53.20;;;;;;5031698;28;20100;-72
2023/09/14 12:28:11;;;;;;;6.78;4.00;;;17.50;53.80;;;;;;5018125;28;20498;-71
2023/09/14 12:30:37;;;;;;;;;;;17.50;53.70;;;;;;5014823;28;20487;-71
2023/09/14 12:33:06;;;;;;;6.18;2.90;;;17.40;54.30;;;;;;5042416;28;19976;-72
2023/09/14 12:35:33;;;;;;;4.13;2.95;;;17.40;54.50;;;;;;4995862;28;20043;-73
2023/09/14 12:38:04;;;;;;;5.65;3.35;;;17.30;54.80;;;;;;5040744;28;20128;-71
2023/09/14 12:40:38;;;;;;;6.75;3.95;;;17.20;55.00;;;;;;5039256;28;20037;-71
2023/09/14 12:43:06;;;;;;;5.78;3.70;;;17.20;55.50;;;;;;5029081;28;20427;-71
2023/09/14 12:45:34;;;;;;;8.35;3.95;;;17.20;56.00;;;;;;5010631;28;20451;-71
2023/09/14 12:48:06;;;;;;;5.35;3.55;;;17.10;56.50;;;;;;5014389;28;20037;-71
2023/09/14 12:50:35;;;;;;;8.82;3.72;;;17.00;56.70;;;;;;5032022;28;20033;-71
2023/09/14 12:53:11;;;;;;;7.47;3.83;;;17.00;57.50;;;;;;5029166;28;20033;-71
2023/09/14 12:55:44;;;;;;;7.28;3.85;;;17.00;57.40;;;;;;5027310;28;20547;-71
2023/09/14 12:58:12;;;;;;;7.07;3.95;;;16.90;57.60;;;;;;5028488;28;20161;-72
2023/09/14 13:00:39;;;;;;;8.35;4.15;;;16.90;57.40;;;;;;5031697;28;20499;-71
2023/09/14 13:03:09;;;;;;;8.60;4.53;;;16.80;57.70;;;;;;5031843;28;20065;-71
2023/09/14 13:05:37;;;;;;;12.27;4.95;;;16.90;57.80;;;;;;5031204;28;20041;-71
2023/09/14 13:08:05;;;;;;;7.03;4.78;;;16.80;57.60;;;;;;5018456;28;20036;-71
2023/09/14 13:10:34;;;;;;;6.82;4.63;;;16.80;57.70;;;;;;5013968;28;20033;-71
2023/09/14 13:13:04;;;;;;;10.07;4.65;;;16.90;57.70;;;;;;5034431;28;20043;-71
2023/09/14 13:15:32;;;;;;;6.57;4.43;;;16.90;57.80;;;;;;5035111;28;21057;-71
2023/09/14 13:18:03;;;;;;;9.38;4.95;;;16.80;57.60;;;;;;5017889;28;20037;-72
2023/09/14 13:20:32;;;;;;;10.15;5.50;;;16.80;58.10;;;;;;5018713;28;20032;-72
2023/09/14 13:23:03;;;;;;;7.35;4.82;;;16.80;58.80;;;;;;5018343;28;20056;-71
2023/09/14 13:25:30;;;;;;;8.07;5.28;;;16.80;58.80;;;;;;5052569;28;20056;-71
2023/09/14 13:27:59;;;;;;;11.48;5.57;;;16.70;59.30;;;;;;5035461;28;20549;-72
2023/09/14 13:30:27;;;;;;;9.15;4.72;;;16.70;59.30;;;;;;5035444;28;20499;-72
2023/09/14 13:32:57;;;;;;;8.55;4.68;;;16.60;59.60;;;;;;5018122;28;20021;-72
2023/09/14 13:35:25;;;;;;;6.97;4.70;;;16.60;59.70;;;;;;5018467;28;20056;-72
2023/09/14 13:37:52;;;;;;;7.80;4.65;;;16.50;59.90;;;;;;5054865;28;20044;-71
2023/09/14 13:40:20;;;;;;;6.63;4.47;;;16.60;59.80;;;;;;5037134;28;20037;-71
2023/09/14 13:42:51;;;;;;;7.47;4.35;;;16.60;59.70;;;;;;5036481;28;20037;-72
2023/09/14 13:45:20;;;;;;;7.20;4.65;;;16.60;59.70;;;;;;5042071;28;20050;-71
2023/09/14 13:47:48;;;;;;;23.25;5.85;;;16.60;59.80;;;;;;5034694;28;20041;-71
2023/09/14 13:50:15;;;;;;;23.98;5.95;;;16.60;59.70;;;;;;5050550;28;20037;-72
2023/09/14 13:52:43;;;;;;;23.65;6.28;;;16.70;60.10;;;;;;5053197;28;20033;-72
2023/09/14 13:55:10;;;;;;;20.58;5.65;;;16.60;60.30;;;;;;5037147;28;20495;-72
2023/09/14 13:57:38;;;;;;;15.02;4.80;;;16.50;60.90;;;;;;5055132;28;20087;-72
2023/09/14 14:00:10;;;;;;;9.13;5.03;;;16.50;61.20;;;;;;5050372;28;20120;-71
2023/09/14 14:02:42;;;;;;;8.10;4.38;;;16.50;61.80;;;;;;5034836;28;20488;-71
2023/09/14 14:05:09;;;;;;;11.73;4.55;;;16.40;62.10;;;;;;5034409;28;20049;-72
2023/09/14 14:07:36;;;;;;;9.52;4.55;;;16.40;62.20;;;;;;5034958;28;20036;-71
2023/09/14 14:10:05;;;;;;;14.48;4.65;;;16.30;62.10;;;;;;5034240;28;20526;-71
2023/09/14 14:12:33;;;;;;;6.53;4.57;;;16.30;62.40;;;;;;5016123;28;20033;-72
2023/09/14 16:13:47;;;;;;;11.13;5.88;;;15.30;65.30;;;;;;5023335;28;20292;-72
2023/09/14 16:16:15;;;;;;;10.35;5.93;;;15.30;65.50;;;;;;5012862;28;20129;-72
2023/09/14 16:18:42;;;;;;;16.23;6.13;;;15.30;66.00;;;;;;4995313;28;20080;-72
2023/09/14 16:21:09;;;;;;;9.38;5.95;;;15.30;66.50;;;;;;5012974;28;20038;-73
2023/09/14 16:23:36;;;;;;;9.13;5.55;;;15.30;67.30;;;;;;5012913;28;20033;-72
2023/09/14 16:26:03;;;;;;;12.15;6.22;;;15.20;67.80;;;;;;5012865;28;20073;-72
2023/09/14 16:28:31;;;;;;;11.45;5.95;;;15.20;68.50;;;;;;5013007;28;20058;-72
2023/09/14 16:30:59;;;;;;;9.20;5.57;;;15.20;69.20;;;;;;5012050;28;20045;-72
2023/09/14 16:33:26;;;;;;;11.27;6.15;;;15.10;69.80;;;;;;5012463;28;20034;-72
2023/09/14 16:35:59;;;;;;;7.85;5.32;;;15.10;70.30;;;;;;5007478;28;20060;-72
2023/09/14 16:38:26;;;;;;;9.80;5.97;;;15.00;71.00;;;;;;5012755;28;20041;-72
2023/09/14 16:40:54;;;;;;;9.45;6.10;;;15.00;71.00;;;;;;5028419;28;20049;-71
2023/09/14 16:43:22;;;;;;;11.32;5.70;;;15.00;70.50;;;;;;5032043;28;20037;-72
2023/09/14 16:45:49;;;;;;;13.80;5.63;;;14.90;70.20;;;;;;5023333;28;20056;-72
2023/09/14 16:48:16;;;;;;;14.05;6.38;;;14.90;70.40;;;;;;4987110;28;20543;-72
2023/09/14 16:50:45;;;;;;;10.63;6.07;;;14.90;70.50;;;;;;4995044;28;20113;-72
2023/09/14 16:53:13;;;;;;;11.45;5.38;;;14.80;70.80;;;;;;5028854;28;20033;-72
2023/09/14 16:55:41;;;;;;;12.10;5.40;;;14.80;71.50;;;;;;5012270;28;20038;-72
2023/09/14 16:58:08;;;;;;;11.95;5.38;;;14.80;72.20;;;;;;5011954;28;20044;-72
2023/09/14 17:00:36;;;;;;;13.07;5.72;;;14.80;72.50;;;;;;5012141;28;20030;-72
2023/09/14 17:03:04;;;;;;;9.38;5.95;;;14.70;72.60;;;;;;5011546;28;20046;-72
2023/09/14 17:05:31;;;;;;;9.63;5.05;;;14.70;73.30;;;;;;5015178;28;20427;-71
2023/09/14 17:07:58;;;;;;;14.82;6.28;;;14.70;73.60;;;;;;5032191;28;20042;-72
2023/09/14 17:10:25;;;;;;;8.02;5.15;;;14.70;74.10;;;;;;5019139;28;20042;-72
2023/09/14 17:12:53;;;;;;;8.40;4.97;;;14.70;74.10;;;;;;5011933;28;20038;-72
